createdAt,value
2022-12-20T00:01:34.796Z,18.60
2022-12-20T00:04:05.571Z,18.38
2022-12-20T00:06:35.492Z,17.20
2022-12-20T00:09:04.063Z,15.73
2022-12-20T00:11:30.906Z,17.67
2022-12-20T00:13:58.575Z,17.88
2022-12-20T00:16:27.919Z,16.00
2022-12-20T00:18:57.232Z,13.70
2022-12-20T00:21:24.876Z,15.93
2022-12-20T00:23:52.725Z,12.95
2022-12-20T00:26:22.181Z,12.48
2022-12-20T00:28:49.325Z,11.07
2022-12-20T00:31:18.131Z,10.95
2022-12-20T00:33:47.919Z,8.00
2022-12-20T00:36:15.623Z,9.25
2022-12-20T00:38:45.405Z,8.18
2022-12-20T00:41:15.742Z,7.47
2022-12-20T00:43:43.073Z,7.25
2022-12-20T00:46:11.604Z,8.57
2022-12-20T00:48:38.754Z,7.75
2022-12-20T00:51:08.669Z,8.38
2022-12-20T00:53:36.748Z,8.88
2022-12-20T00:56:04.789Z,7.80
2022-12-20T00:58:33.686Z,7.15
2022-12-20T01:01:00.631Z,8.70
2022-12-20T01:03:27.981Z,7.28
2022-12-20T01:06:00.535Z,7.78
2022-12-20T01:08:29.318Z,7.25
2022-12-20T01:11:00.480Z,8.15
2022-12-20T01:13:28.097Z,7.43
2022-12-20T01:15:55.259Z,7.03
2022-12-20T01:18:22.645Z,8.02
2022-12-20T01:20:49.636Z,7.93
2022-12-20T01:23:16.495Z,7.75
2022-12-20T01:25:43.281Z,8.73
2022-12-20T01:28:10.223Z,8.32
2022-12-20T01:30:41.001Z,7.57
2022-12-20T01:33:07.848Z,8.18
2022-12-20T01:35:34.650Z,8.20
2022-12-20T01:38:01.929Z,8.05
2022-12-20T01:40:28.807Z,7.63
2022-12-20T01:42:55.643Z,8.02
2022-12-20T01:45:30.619Z,8.15
2022-12-20T01:47:59.620Z,9.98
2022-12-20T01:50:26.918Z,6.93
2022-12-20T01:52:54.193Z,7.25
2022-12-20T01:55:26.231Z,6.78
2022-12-20T01:57:55.729Z,6.88
2022-12-20T02:00:22.891Z,8.43
2022-12-20T02:02:50.501Z,7.68
2022-12-20T02:05:20.610Z,6.38
2022-12-20T02:07:51.134Z,7.22
2022-12-20T02:10:20.735Z,8.02
2022-12-20T02:12:48.598Z,7.70
2022-12-20T02:15:41.779Z,6.40
2022-12-20T02:18:39.341Z,6.85
2022-12-20T02:21:37.449Z,6.35
2022-12-20T02:24:23.502Z,7.70
2022-12-20T02:27:05.363Z,6.75
2022-12-20T02:29:59.583Z,5.90
2022-12-20T02:32:38.679Z,6.10
2022-12-20T02:35:08.476Z,6.03
2022-12-20T02:37:35.885Z,5.53
2022-12-20T02:40:05.715Z,6.03
2022-12-20T02:42:33.678Z,5.45
2022-12-20T02:45:18.097Z,4.85
2022-12-20T02:47:57.441Z,5.85
2022-12-20T02:50:29.623Z,6.43
2022-12-20T02:52:57.162Z,5.95
2022-12-20T02:55:57.784Z,5.88
2022-12-20T02:58:39.123Z,5.50
2022-12-20T03:01:20.000Z,5.30
2022-12-20T03:03:47.846Z,5.70
2022-12-20T03:06:14.681Z,4.88
2022-12-20T03:08:41.502Z,4.45
2022-12-20T03:11:08.558Z,4.93
2022-12-20T03:13:35.418Z,4.40
2022-12-20T03:16:07.372Z,4.57
2022-12-20T03:18:34.365Z,4.78
2022-12-20T03:21:01.192Z,4.28
2022-12-20T03:23:28.059Z,4.53
2022-12-20T03:25:56.214Z,4.82
2022-12-20T03:28:30.848Z,4.15
2022-12-20T03:30:58.024Z,5.55
2022-12-20T03:33:25.139Z,4.63
2022-12-20T03:35:52.145Z,4.63
2022-12-20T03:38:19.304Z,4.43
2022-12-20T03:40:46.175Z,4.85
2022-12-20T03:43:16.862Z,6.03
2022-12-20T03:45:43.829Z,4.50
2022-12-20T03:48:10.746Z,5.35
2022-12-20T03:50:38.326Z,4.78
2022-12-20T03:53:05.288Z,5.00
2022-12-20T03:55:33.252Z,4.55
2022-12-20T03:58:00.445Z,4.22
2022-12-20T04:00:33.188Z,4.35
2022-12-20T04:03:20.006Z,5.30
2022-12-20T04:05:46.974Z,5.95
2022-12-20T04:08:13.923Z,4.18
2022-12-20T04:10:59.324Z,4.68
2022-12-20T04:13:30.757Z,5.13
2022-12-20T04:16:00.619Z,3.67
2022-12-20T04:18:30.858Z,3.85
2022-12-20T04:21:03.642Z,4.57
2022-12-20T04:23:31.708Z,3.58
2022-12-20T04:25:59.152Z,3.53
2022-12-20T04:28:26.278Z,2.85
2022-12-20T04:30:54.677Z,2.78
2022-12-20T04:33:26.293Z,2.58
2022-12-20T04:35:54.646Z,2.65
2022-12-20T04:38:23.759Z,7.80
2022-12-20T04:40:53.877Z,3.20
2022-12-20T04:43:22.541Z,2.65
2022-12-20T04:45:56.239Z,2.53
2022-12-20T04:51:14.030Z,2.03
2022-12-20T04:53:50.077Z,3.10
2022-12-20T04:56:29.558Z,2.03
2022-12-20T04:59:03.383Z,2.83
2022-12-20T05:01:31.238Z,1.70
2022-12-20T05:03:58.195Z,2.08
2022-12-20T05:08:55.879Z,2.00
2022-12-20T05:11:22.838Z,1.50
2022-12-20T05:13:50.771Z,1.45
2022-12-20T05:16:20.225Z,1.35
2022-12-20T05:18:49.485Z,1.80
2022-12-20T05:21:36.002Z,1.70
2022-12-20T05:24:22.763Z,2.15
2022-12-20T05:27:12.617Z,1.85
2022-12-20T05:29:39.475Z,1.80
2022-12-20T05:32:06.278Z,2.38
2022-12-20T05:34:37.116Z,1.85
2022-12-20T05:37:04.058Z,1.48
2022-12-20T05:39:33.866Z,1.52
2022-12-20T05:42:04.712Z,1.80
2022-12-20T05:44:31.716Z,1.63
2022-12-20T05:46:59.299Z,2.05
2022-12-20T05:51:59.146Z,2.70
2022-12-20T05:54:26.130Z,3.28
2022-12-20T05:56:58.742Z,3.05
2022-12-20T05:59:33.435Z,2.75
2022-12-20T06:02:00.532Z,2.45
2022-12-20T06:04:27.583Z,2.97
2022-12-20T06:06:54.488Z,2.67
2022-12-20T06:09:21.405Z,3.50
2022-12-20T06:11:55.434Z,2.55
2022-12-20T06:14:22.863Z,2.10
2022-12-20T06:16:49.823Z,2.50
2022-12-20T06:19:21.599Z,3.17
2022-12-20T06:21:50.981Z,3.30
2022-12-20T06:24:25.348Z,2.30
2022-12-20T06:26:53.398Z,4.05
2022-12-20T06:29:21.111Z,3.25
2022-12-20T06:31:52.024Z,2.70
2022-12-20T06:34:19.432Z,2.63
2022-12-20T06:36:46.885Z,3.05
2022-12-20T06:39:18.977Z,3.17
2022-12-20T06:41:58.369Z,4.03
2022-12-20T06:44:25.840Z,4.25
2022-12-20T06:46:52.954Z,5.70
2022-12-20T06:49:20.529Z,7.18
2022-12-20T06:51:47.943Z,5.53
2022-12-20T06:54:16.016Z,5.90
2022-12-20T06:56:42.834Z,6.38
2022-12-20T06:59:11.886Z,6.60
2022-12-20T07:01:39.044Z,5.18
2022-12-20T07:04:06.103Z,5.03
2022-12-20T07:06:32.985Z,6.68
2022-12-20T07:09:00.132Z,7.88
2022-12-20T07:11:26.946Z,10.25
2022-12-20T07:13:57.159Z,7.28
2022-12-20T07:16:24.451Z,11.70
2022-12-20T07:18:55.417Z,8.93
2022-12-20T07:21:22.426Z,9.10
2022-12-20T07:23:49.416Z,9.73
2022-12-20T07:26:16.481Z,7.78
2022-12-20T07:28:43.425Z,6.70
2022-12-20T07:31:10.552Z,7.07
2022-12-20T07:33:37.474Z,7.80
2022-12-20T07:36:09.973Z,7.32
2022-12-20T07:38:37.354Z,7.10
2022-12-20T07:41:08.966Z,6.90
2022-12-20T07:43:35.882Z,7.40
2022-12-20T07:46:04.796Z,7.88
2022-12-20T07:48:31.972Z,6.65
2022-12-20T07:51:08.697Z,6.40
2022-12-20T07:53:39.907Z,5.78
2022-12-20T07:56:08.035Z,6.97
2022-12-20T07:58:37.740Z,5.55
2022-12-20T08:01:05.027Z,15.38
2022-12-20T08:03:39.410Z,8.85
2022-12-20T08:06:08.634Z,7.43
2022-12-20T08:08:38.751Z,7.50
2022-12-20T08:11:08.661Z,6.38
2022-12-20T08:13:38.216Z,6.03
2022-12-20T08:16:09.453Z,7.05
2022-12-20T08:18:36.272Z,6.68
2022-12-20T08:21:03.103Z,6.10
2022-12-20T08:23:29.949Z,6.25
2022-12-20T08:25:56.835Z,6.35
2022-12-20T08:28:24.057Z,6.43
2022-12-20T08:30:50.963Z,7.05
2022-12-20T08:33:17.855Z,9.27
2022-12-20T08:35:44.632Z,6.90
2022-12-20T08:38:11.470Z,8.73
2022-12-20T08:40:38.321Z,6.85
2022-12-20T08:43:09.898Z,7.55
2022-12-20T08:45:37.139Z,6.40
2022-12-20T08:48:04.124Z,7.28
2022-12-20T08:50:30.948Z,7.47
2022-12-20T08:52:58.164Z,7.72
2022-12-20T08:55:29.294Z,6.43
2022-12-20T08:57:56.445Z,5.93
2022-12-20T09:00:23.326Z,7.65
2022-12-20T09:02:51.895Z,7.55
2022-12-20T09:05:18.976Z,6.82
2022-12-20T09:07:46.017Z,6.97
2022-12-20T09:10:13.261Z,7.65
2022-12-20T09:12:40.077Z,7.68
2022-12-20T09:15:08.981Z,8.63
2022-12-20T09:17:35.778Z,7.07
2022-12-20T09:20:02.986Z,7.40
2022-12-20T09:22:30.186Z,8.55
2022-12-20T09:24:57.026Z,8.80
2022-12-20T09:27:23.895Z,7.75
2022-12-20T09:29:50.686Z,8.02
2022-12-20T09:32:17.526Z,9.60
2022-12-20T09:34:44.343Z,7.75
2022-12-20T09:37:11.181Z,8.88
2022-12-20T09:39:37.980Z,8.18
2022-12-20T09:42:09.291Z,8.77
2022-12-20T09:44:40.510Z,16.70
2022-12-20T09:47:26.267Z,28.58
2022-12-20T09:49:56.845Z,10.85
2022-12-20T09:52:40.276Z,9.73
2022-12-20T09:55:37.807Z,9.23
2022-12-20T09:58:18.606Z,10.25
2022-12-20T10:00:53.860Z,9.55
2022-12-20T10:03:39.670Z,8.27
2022-12-20T10:06:33.775Z,7.50
2022-12-20T10:09:21.817Z,7.72
2022-12-20T10:12:16.263Z,8.13
2022-12-20T10:15:00.546Z,9.05
2022-12-20T10:17:47.657Z,7.85
2022-12-20T10:20:41.331Z,7.50
2022-12-20T10:23:29.434Z,8.15
2022-12-20T10:25:58.311Z,9.80
2022-12-20T10:28:34.556Z,7.20
2022-12-20T10:31:12.657Z,8.88
2022-12-20T10:33:40.349Z,7.15
2022-12-20T10:36:28.952Z,7.47
2022-12-20T10:39:01.162Z,7.55
2022-12-20T10:41:31.116Z,7.28
2022-12-20T10:44:17.069Z,8.15
2022-12-20T10:46:51.645Z,7.72
2022-12-20T10:49:35.319Z,6.85
2022-12-20T10:52:09.748Z,6.55
2022-12-20T10:54:41.981Z,8.45
2022-12-20T10:57:26.215Z,8.93
2022-12-20T10:59:54.779Z,8.02
2022-12-20T11:02:41.232Z,8.45
2022-12-20T11:05:12.428Z,8.10
2022-12-20T11:08:34.916Z,7.82
2022-12-20T11:10:40.494Z,7.80
2022-12-20T11:13:19.216Z,8.48
2022-12-20T11:15:50.408Z,8.82
2022-12-20T11:18:52.298Z,9.00
2022-12-20T11:21:53.364Z,9.32
2022-12-20T11:24:27.052Z,10.52
2022-12-20T11:26:54.036Z,10.85
2022-12-20T11:29:41.301Z,9.15
2022-12-20T11:32:30.113Z,9.20
2022-12-20T11:35:05.749Z,10.20
2022-12-20T11:37:49.873Z,10.27
2022-12-20T11:40:22.961Z,9.23
2022-12-20T11:43:43.222Z,9.20
2022-12-20T11:46:46.639Z,11.10
2022-12-20T11:49:33.700Z,9.98
2022-12-20T11:52:15.854Z,9.85
2022-12-20T11:54:48.409Z,11.38
2022-12-20T11:57:25.474Z,11.50
2022-12-20T12:00:00.189Z,12.77
2022-12-20T12:02:36.097Z,10.90
2022-12-20T12:05:16.834Z,10.50
2022-12-20T12:07:50.707Z,11.43
2022-12-20T12:10:25.220Z,12.88
2022-12-20T12:12:54.779Z,13.75
2022-12-20T12:15:21.969Z,13.05
2022-12-20T12:17:54.764Z,12.48
2022-12-20T12:20:28.240Z,12.88
2022-12-20T12:23:25.364Z,11.95
2022-12-20T12:25:52.788Z,12.38
2022-12-20T12:28:22.565Z,11.68
2022-12-20T12:30:59.634Z,12.60
2022-12-20T12:33:38.997Z,11.55
2022-12-20T12:36:40.401Z,13.73
2022-12-20T12:39:49.709Z,12.30
2022-12-20T12:42:37.763Z,12.50
2022-12-20T12:45:26.440Z,12.68
2022-12-20T12:47:58.179Z,11.70
2022-12-20T12:50:30.697Z,11.30
2022-12-20T12:53:14.533Z,11.23
2022-12-20T12:55:52.141Z,12.68
2022-12-20T12:58:25.370Z,11.30
2022-12-20T13:00:52.433Z,12.02
2022-12-20T13:03:58.076Z,12.23
2022-12-20T13:06:28.363Z,12.55
2022-12-20T13:09:04.202Z,11.93
2022-12-20T13:11:36.527Z,12.43
2022-12-20T13:14:21.394Z,12.85
2022-12-20T13:19:39.055Z,13.88
2022-12-20T13:22:11.922Z,14.52
2022-12-20T13:24:53.302Z,14.18
2022-12-20T13:27:36.147Z,12.15
2022-12-20T13:30:14.747Z,13.82
2022-12-20T13:32:54.928Z,13.02
2022-12-20T13:35:24.877Z,13.43
2022-12-20T13:38:11.693Z,13.82
2022-12-20T13:40:44.842Z,11.95
2022-12-20T13:43:20.487Z,11.52
2022-12-20T13:45:51.215Z,16.17
2022-12-20T13:48:25.379Z,14.35
2022-12-20T13:50:56.822Z,13.07
2022-12-20T13:53:27.261Z,10.93
2022-12-20T13:58:27.843Z,12.90
2022-12-20T14:01:05.597Z,14.45
2022-12-20T14:03:34.555Z,12.55
2022-12-20T14:06:09.536Z,15.18
2022-12-20T14:08:43.634Z,14.32
2022-12-20T14:11:26.884Z,14.02
2022-12-20T14:13:56.925Z,16.25
2022-12-20T14:16:26.362Z,15.55
2022-12-20T14:19:05.775Z,15.98
2022-12-20T14:21:39.663Z,17.13
2022-12-20T14:24:11.815Z,16.63
2022-12-20T14:26:44.945Z,15.13
2022-12-20T14:29:15.501Z,15.45
2022-12-20T14:31:44.839Z,17.55
2022-12-20T14:34:11.633Z,15.93
2022-12-20T14:36:40.612Z,16.27
2022-12-20T14:39:26.630Z,16.98
2022-12-20T14:42:13.609Z,18.20
2022-12-20T14:44:40.781Z,16.10
2022-12-20T14:47:13.757Z,17.23
2022-12-20T14:49:40.860Z,17.42
2022-12-20T14:52:21.872Z,17.98
2022-12-20T14:55:07.857Z,14.93
2022-12-20T14:57:35.453Z,17.38
2022-12-20T15:00:10.404Z,17.00
2022-12-20T15:02:51.791Z,16.10
2022-12-20T15:05:40.147Z,13.68
2022-12-20T15:08:33.396Z,13.98
2022-12-20T15:11:17.964Z,17.23
2022-12-20T15:13:54.438Z,15.13
2022-12-20T15:16:29.741Z,16.40
2022-12-20T15:18:59.186Z,15.45
2022-12-20T15:21:42.793Z,15.57
2022-12-20T15:24:16.670Z,17.08
2022-12-20T15:26:43.530Z,17.65
2022-12-20T15:29:17.512Z,18.45
2022-12-20T15:31:46.353Z,19.35
2022-12-20T15:34:25.449Z,21.38
2022-12-20T15:36:52.480Z,20.35
2022-12-20T15:39:20.277Z,20.65
2022-12-20T15:41:49.137Z,19.30
2022-12-20T15:44:22.106Z,18.30
2022-12-20T15:46:50.834Z,19.35
2022-12-20T15:49:30.742Z,19.60
2022-12-20T15:51:58.228Z,19.67
2022-12-20T15:54:32.769Z,21.10
2022-12-20T15:57:07.518Z,19.70
2022-12-20T16:00:04.851Z,20.98
2022-12-20T16:02:25.171Z,22.75
2022-12-20T16:04:53.617Z,20.85
2022-12-20T16:07:20.471Z,24.55
2022-12-20T16:09:47.585Z,20.95
2022-12-20T16:12:18.414Z,21.75
2022-12-20T16:14:45.416Z,22.02
2022-12-20T16:17:14.214Z,20.88
2022-12-20T16:19:42.354Z,21.70
2022-12-20T16:22:19.414Z,21.30
2022-12-20T16:24:47.075Z,19.25
2022-12-20T16:27:14.402Z,21.38
2022-12-20T16:29:41.725Z,20.67
2022-12-20T16:32:16.458Z,22.27
2022-12-20T16:34:43.781Z,22.70
2022-12-20T16:37:11.930Z,22.63
2022-12-20T16:39:38.919Z,21.92
2022-12-20T16:42:14.943Z,22.92
2022-12-20T16:44:44.515Z,21.08
2022-12-20T16:47:12.300Z,20.30
2022-12-20T16:49:39.457Z,23.23
2022-12-20T16:52:13.970Z,21.58
2022-12-20T16:54:40.756Z,23.05
2022-12-20T16:57:08.379Z,22.98
2022-12-20T16:59:35.195Z,22.38
2022-12-20T17:02:02.350Z,24.67
2022-12-20T17:04:29.827Z,22.15
2022-12-20T17:06:56.895Z,20.10
2022-12-20T17:09:23.735Z,21.02
2022-12-20T17:11:50.726Z,22.05
2022-12-20T17:14:19.863Z,18.48
2022-12-20T17:16:47.111Z,18.60
2022-12-20T17:19:14.079Z,20.10
2022-12-20T17:24:32.658Z,18.40
2022-12-20T17:27:00.445Z,16.95
2022-12-20T17:29:27.486Z,15.43
2022-12-20T17:31:54.459Z,14.25
2022-12-20T17:34:25.633Z,15.95
2022-12-20T17:36:55.178Z,14.10
2022-12-20T17:39:22.852Z,14.75
2022-12-20T17:41:50.139Z,13.80
2022-12-20T17:44:25.856Z,15.18
2022-12-20T17:46:53.593Z,15.05
2022-12-20T17:49:21.250Z,13.15
2022-12-20T17:51:48.027Z,13.40
2022-12-20T17:54:23.623Z,13.20
2022-12-20T17:56:51.375Z,9.10
2022-12-20T17:59:18.495Z,9.55
2022-12-20T18:01:46.710Z,7.90
2022-12-20T18:04:15.833Z,6.43
2022-12-20T18:06:44.816Z,5.68
2022-12-20T18:09:20.779Z,4.88
2022-12-20T18:11:47.605Z,4.88
2022-12-20T18:14:14.907Z,4.72
2022-12-20T18:16:42.081Z,5.25
2022-12-20T18:19:16.075Z,5.88
2022-12-20T18:21:43.001Z,6.20
2022-12-20T18:24:15.247Z,7.40
2022-12-20T18:26:43.007Z,8.10
2022-12-20T18:29:11.028Z,10.30
2022-12-20T18:31:38.304Z,12.75
2022-12-20T18:34:05.667Z,15.82
2022-12-20T18:36:34.865Z,16.13
2022-12-20T18:39:04.774Z,17.88
2022-12-20T18:41:31.962Z,21.58
2022-12-20T18:44:01.098Z,19.52
2022-12-20T18:46:29.045Z,21.45
2022-12-20T18:48:58.651Z,20.63
2022-12-20T18:51:28.762Z,22.10
2022-12-20T18:53:57.481Z,22.70
2022-12-20T18:56:26.659Z,21.17
2022-12-20T18:58:53.657Z,22.88
2022-12-20T19:01:27.042Z,20.73
2022-12-20T19:03:55.026Z,21.05
2022-12-20T19:06:22.961Z,22.40
2022-12-20T19:08:50.563Z,22.00
2022-12-20T19:11:20.367Z,19.48
2022-12-20T19:13:47.680Z,15.90
2022-12-20T19:16:20.118Z,17.90
2022-12-20T19:18:47.783Z,17.85
2022-12-20T19:21:20.536Z,18.70
2022-12-20T19:23:50.247Z,18.05
2022-12-20T19:26:19.490Z,17.95
2022-12-20T19:28:47.083Z,17.48
2022-12-20T19:31:21.703Z,21.10
2022-12-20T19:33:50.123Z,21.30
2022-12-20T19:36:19.900Z,23.58
2022-12-20T19:38:51.925Z,21.10
2022-12-20T19:41:20.129Z,22.65
2022-12-20T19:43:47.782Z,22.90
2022-12-20T19:46:15.477Z,21.63
2022-12-20T19:48:42.395Z,21.90
2022-12-20T19:51:14.253Z,21.13
2022-12-20T19:53:43.603Z,19.17
2022-12-20T19:56:12.738Z,18.38
2022-12-20T19:58:40.834Z,20.77
2022-12-20T20:01:08.662Z,18.30
2022-12-20T20:03:36.338Z,18.50
2022-12-20T20:06:04.742Z,18.77
2022-12-20T20:08:32.312Z,22.25
2022-12-20T20:11:05.317Z,21.83
2022-12-20T20:13:35.919Z,21.45
2022-12-20T20:16:03.900Z,23.55
2022-12-20T20:18:36.661Z,21.48
2022-12-20T20:21:12.853Z,22.85
2022-12-20T20:23:40.294Z,21.90
2022-12-20T20:26:14.037Z,22.23
2022-12-20T20:28:45.235Z,20.60
2022-12-20T20:31:14.605Z,20.90
2022-12-20T20:33:42.109Z,22.20
2022-12-20T20:36:12.231Z,23.63
2022-12-20T20:38:39.204Z,21.33
2022-12-20T20:41:06.207Z,21.42
2022-12-20T20:43:37.680Z,22.63
2022-12-20T20:46:06.418Z,22.08
2022-12-20T20:48:33.481Z,19.90
2022-12-20T20:51:00.797Z,21.90
2022-12-20T20:53:32.983Z,19.15
2022-12-20T20:56:00.635Z,19.63
2022-12-20T20:58:27.503Z,22.60
2022-12-20T21:00:59.549Z,21.00
2022-12-20T21:03:27.834Z,22.50
2022-12-20T21:08:41.739Z,26.45
2022-12-20T21:11:09.195Z,44.28
2022-12-20T21:13:36.194Z,31.45
2022-12-20T21:16:22.191Z,26.58
2022-12-20T21:18:53.749Z,28.63
2022-12-20T21:21:21.090Z,28.20
2022-12-20T21:23:48.836Z,24.35
2022-12-20T21:26:17.001Z,22.88
2022-12-20T21:28:44.063Z,22.40
2022-12-20T21:31:14.262Z,25.27
2022-12-20T21:33:41.353Z,23.17
2022-12-20T21:36:13.914Z,24.17
2022-12-20T21:38:41.014Z,23.58
2022-12-20T21:41:13.264Z,26.15
2022-12-20T21:43:40.329Z,25.40
2022-12-20T21:46:11.419Z,26.70
2022-12-20T21:48:43.107Z,24.13
2022-12-20T21:51:11.317Z,25.02
2022-12-20T21:53:52.415Z,23.98
2022-12-20T21:56:20.772Z,24.70
2022-12-20T21:58:48.217Z,26.08
2022-12-20T22:01:19.013Z,24.67
2022-12-20T22:03:46.180Z,22.80
2022-12-20T22:06:13.034Z,18.73
2022-12-20T22:08:39.847Z,19.25
2022-12-20T22:11:09.696Z,20.80
2022-12-20T22:13:41.549Z,19.33
2022-12-20T22:16:11.993Z,20.35
2022-12-20T22:18:40.100Z,19.27
2022-12-20T22:21:09.925Z,18.52
2022-12-20T22:23:40.079Z,21.00
2022-12-20T22:26:09.764Z,19.48
2022-12-20T22:28:37.076Z,16.67
2022-12-20T22:31:09.157Z,17.30
2022-12-20T22:33:36.955Z,18.45
2022-12-20T22:36:04.835Z,16.80
2022-12-20T22:38:31.812Z,16.20
2022-12-20T22:41:09.572Z,15.43
2022-12-20T22:43:37.768Z,16.25
2022-12-20T22:48:49.425Z,13.95
2022-12-20T22:51:19.288Z,14.43
2022-12-20T22:53:50.258Z,15.80
2022-12-20T22:56:19.543Z,13.80
2022-12-20T22:58:46.628Z,12.05
2022-12-20T23:01:15.365Z,12.15
2022-12-20T23:03:42.943Z,10.13
2022-12-20T23:06:13.318Z,10.88
2022-12-20T23:08:40.530Z,11.48
2022-12-20T23:11:35.619Z,12.45
2022-12-20T23:14:21.822Z,12.13
2022-12-20T23:16:49.114Z,11.75
2022-12-20T23:19:16.118Z,10.38
2022-12-20T23:22:01.791Z,9.55
2022-12-20T23:24:28.710Z,11.45
2022-12-20T23:26:55.745Z,11.20
2022-12-20T23:29:22.942Z,11.15
2022-12-20T23:31:49.992Z,10.80
2022-12-20T23:34:16.898Z,10.98
2022-12-20T23:36:43.853Z,13.55
2022-12-20T23:39:10.729Z,14.23
2022-12-20T23:41:37.546Z,12.45
2022-12-20T23:44:06.088Z,14.02
2022-12-20T23:46:33.184Z,14.32
2022-12-20T23:49:00.069Z,15.60
2022-12-20T23:51:27.061Z,15.27
2022-12-20T23:53:54.557Z,16.02
2022-12-20T23:56:22.280Z,15.50
2022-12-20T23:58:55.651Z,14.18
